sensor_id;sensor_type;location;lat;lon;timestamp;P1;durP1;ratioP1;P2;durP2;ratioP2
1296;SDS011;641;48.492;9.184;2023-09-08T00:02:08;16.30;;;10.97;;
1296;SDS011;641;48.492;9.184;2023-09-08T00:04:33;19.00;;;10.40;;
1296;SDS011;641;48.492;9.184;2023-09-08T00:06:59;14.90;;;10.20;;
1296;SDS011;641;48.492;9.184;2023-09-08T00:09:25;14.83;;;8.50;;
1296;SDS011;641;48.492;9.184;2023-09-08T00:11:50;14.17;;;8.77;;
1296;SDS011;641;48.492;9.184;2023-09-08T00:14:16;15.20;;;9.83;;
1296;SDS011;641;48.492;9.184;2023-09-08T00:16:42;14.43;;;9.00;;
1296;SDS011;641;48.492;9.184;2023-09-08T00:19:08;13.97;;;8.53;;
1296;SDS011;641;48.492;9.184;2023-09-08T00:21:37;17.97;;;9.63;;
1296;SDS011;641;48.492;9.184;2023-09-08T00:24:03;14.77;;;8.30;;
1296;SDS011;641;48.492;9.184;2023-09-08T00:26:30;16.90;;;8.43;;
1296;SDS011;641;48.492;9.184;2023-09-08T00:28:55;12.73;;;8.20;;
1296;SDS011;641;48.492;9.184;2023-09-08T00:31:21;12.93;;;8.33;;
1296;SDS011;641;48.492;9.184;2023-09-08T00:33:47;16.70;;;9.10;;
1296;SDS011;641;48.492;9.184;2023-09-08T00:36:12;15.40;;;9.10;;
1296;SDS011;641;48.492;9.184;2023-09-08T00:38:38;14.27;;;9.17;;
1296;SDS011;641;48.492;9.184;2023-09-08T00:41:07;16.90;;;8.70;;
1296;SDS011;641;48.492;9.184;2023-09-08T00:43:32;16.23;;;9.90;;
1296;SDS011;641;48.492;9.184;2023-09-08T00:45:58;13.13;;;8.17;;
1296;SDS011;641;48.492;9.184;2023-09-08T00:48:25;16.57;;;9.37;;
1296;SDS011;641;48.492;9.184;2023-09-08T00:50:51;14.10;;;8.50;;
1296;SDS011;641;48.492;9.184;2023-09-08T00:53:17;17.27;;;8.97;;
1296;SDS011;641;48.492;9.184;2023-09-08T00:55:43;14.40;;;8.77;;
1296;SDS011;641;48.492;9.184;2023-09-08T00:58:10;14.60;;;9.47;;
1296;SDS011;641;48.492;9.184;2023-09-08T01:00:36;16.67;;;9.60;;
1296;SDS011;641;48.492;9.184;2023-09-08T01:03:02;14.47;;;9.00;;
1296;SDS011;641;48.492;9.184;2023-09-08T01:05:27;12.83;;;7.90;;
1296;SDS011;641;48.492;9.184;2023-09-08T01:07:53;12.00;;;7.40;;
1296;SDS011;641;48.492;9.184;2023-09-08T01:10:20;12.90;;;7.93;;
1296;SDS011;641;48.492;9.184;2023-09-08T01:12:46;12.83;;;7.73;;
1296;SDS011;641;48.492;9.184;2023-09-08T01:15:12;14.77;;;8.17;;
1296;SDS011;641;48.492;9.184;2023-09-08T01:17:37;16.33;;;8.00;;
1296;SDS011;641;48.492;9.184;2023-09-08T01:20:15;14.33;;;7.93;;
1296;SDS011;641;48.492;9.184;2023-09-08T01:25:35;12.80;;;8.30;;
1296;SDS011;641;48.492;9.184;2023-09-08T01:28:43;13.50;;;7.57;;
1296;SDS011;641;48.492;9.184;2023-09-08T01:31:13;16.20;;;8.27;;
1296;SDS011;641;48.492;9.184;2023-09-08T01:33:41;14.37;;;8.53;;
1296;SDS011;641;48.492;9.184;2023-09-08T01:36:07;13.83;;;8.47;;
1296;SDS011;641;48.492;9.184;2023-09-08T01:38:33;18.63;;;8.07;;
1296;SDS011;641;48.492;9.184;2023-09-08T01:40:58;14.77;;;8.40;;
1296;SDS011;641;48.492;9.184;2023-09-08T01:43:26;13.80;;;7.60;;
1296;SDS011;641;48.492;9.184;2023-09-08T01:45:52;13.43;;;7.70;;
1296;SDS011;641;48.492;9.184;2023-09-08T01:48:18;14.83;;;9.00;;
1296;SDS011;641;48.492;9.184;2023-09-08T01:50:43;13.77;;;8.50;;
1296;SDS011;641;48.492;9.184;2023-09-08T01:53:09;14.33;;;7.90;;
1296;SDS011;641;48.492;9.184;2023-09-08T01:55:34;14.30;;;7.93;;
1296;SDS011;641;48.492;9.184;2023-09-08T01:58:00;15.97;;;8.53;;
1296;SDS011;641;48.492;9.184;2023-09-08T02:00:25;17.20;;;8.73;;
1296;SDS011;641;48.492;9.184;2023-09-08T02:02:51;14.67;;;9.20;;
1296;SDS011;641;48.492;9.184;2023-09-08T02:05:16;18.30;;;9.40;;
1296;SDS011;641;48.492;9.184;2023-09-08T02:07:42;13.93;;;9.43;;
1296;SDS011;641;48.492;9.184;2023-09-08T02:10:08;17.73;;;10.77;;
1296;SDS011;641;48.492;9.184;2023-09-08T02:12:35;12.87;;;8.70;;
1296;SDS011;641;48.492;9.184;2023-09-08T02:15:00;14.03;;;8.70;;
1296;SDS011;641;48.492;9.184;2023-09-08T02:17:26;15.50;;;9.43;;
1296;SDS011;641;48.492;9.184;2023-09-08T02:19:51;17.70;;;9.43;;
1296;SDS011;641;48.492;9.184;2023-09-08T02:22:17;15.53;;;9.47;;
1296;SDS011;641;48.492;9.184;2023-09-08T02:24:43;15.70;;;10.07;;
1296;SDS011;641;48.492;9.184;2023-09-08T02:27:08;15.33;;;9.73;;
1296;SDS011;641;48.492;9.184;2023-09-08T02:29:34;13.77;;;9.20;;
1296;SDS011;641;48.492;9.184;2023-09-08T02:32:00;16.70;;;9.97;;
1296;SDS011;641;48.492;9.184;2023-09-08T02:34:25;14.60;;;8.87;;
1296;SDS011;641;48.492;9.184;2023-09-08T02:36:51;17.30;;;9.30;;
1296;SDS011;641;48.492;9.184;2023-09-08T02:39:16;15.53;;;8.40;;
1296;SDS011;641;48.492;9.184;2023-09-08T02:41:42;14.10;;;8.57;;
1296;SDS011;641;48.492;9.184;2023-09-08T02:44:08;16.17;;;9.53;;
1296;SDS011;641;48.492;9.184;2023-09-08T02:46:33;13.73;;;8.50;;
1296;SDS011;641;48.492;9.184;2023-09-08T02:48:59;13.97;;;8.57;;
1296;SDS011;641;48.492;9.184;2023-09-08T02:51:24;14.90;;;8.53;;
1296;SDS011;641;48.492;9.184;2023-09-08T02:53:50;14.20;;;8.63;;
1296;SDS011;641;48.492;9.184;2023-09-08T02:56:15;15.50;;;8.90;;
1296;SDS011;641;48.492;9.184;2023-09-08T02:58:41;16.80;;;8.77;;
1296;SDS011;641;48.492;9.184;2023-09-08T03:01:10;13.80;;;8.40;;
1296;SDS011;641;48.492;9.184;2023-09-08T03:03:40;20.47;;;8.87;;
1296;SDS011;641;48.492;9.184;2023-09-08T03:06:06;15.63;;;8.83;;
1296;SDS011;641;48.492;9.184;2023-09-08T03:08:32;14.20;;;8.33;;
1296;SDS011;641;48.492;9.184;2023-09-08T03:10:58;12.90;;;8.47;;
1296;SDS011;641;48.492;9.184;2023-09-08T03:13:24;12.77;;;7.77;;
1296;SDS011;641;48.492;9.184;2023-09-08T03:15:51;14.90;;;9.00;;
1296;SDS011;641;48.492;9.184;2023-09-08T03:18:17;15.00;;;8.63;;
1296;SDS011;641;48.492;9.184;2023-09-08T03:20:42;13.53;;;7.80;;
1296;SDS011;641;48.492;9.184;2023-09-08T03:23:08;17.77;;;10.57;;
1296;SDS011;641;48.492;9.184;2023-09-08T03:25:34;14.23;;;8.57;;
1296;SDS011;641;48.492;9.184;2023-09-08T03:27:59;15.43;;;8.17;;
1296;SDS011;641;48.492;9.184;2023-09-08T03:30:25;13.10;;;8.20;;
1296;SDS011;641;48.492;9.184;2023-09-08T03:32:50;13.73;;;8.17;;
1296;SDS011;641;48.492;9.184;2023-09-08T03:35:16;15.47;;;8.70;;
1296;SDS011;641;48.492;9.184;2023-09-08T03:37:41;14.13;;;8.83;;
1296;SDS011;641;48.492;9.184;2023-09-08T03:40:07;13.50;;;8.33;;
1296;SDS011;641;48.492;9.184;2023-09-08T03:42:34;13.03;;;7.60;;
1296;SDS011;641;48.492;9.184;2023-09-08T03:45:00;15.40;;;8.13;;
1296;SDS011;641;48.492;9.184;2023-09-08T03:47:25;15.00;;;8.03;;
1296;SDS011;641;48.492;9.184;2023-09-08T03:49:51;13.17;;;8.37;;
1296;SDS011;641;48.492;9.184;2023-09-08T03:52:17;15.67;;;8.93;;
1296;SDS011;641;48.492;9.184;2023-09-08T03:54:42;14.30;;;9.20;;
1296;SDS011;641;48.492;9.184;2023-09-08T03:57:08;15.37;;;8.93;;
1296;SDS011;641;48.492;9.184;2023-09-08T03:59:33;14.10;;;8.37;;
1296;SDS011;641;48.492;9.184;2023-09-08T04:01:59;12.83;;;8.60;;
1296;SDS011;641;48.492;9.184;2023-09-08T04:04:26;13.60;;;9.43;;
1296;SDS011;641;48.492;9.184;2023-09-08T04:06:51;17.63;;;9.23;;
1296;SDS011;641;48.492;9.184;2023-09-08T04:09:17;16.70;;;9.47;;
1296;SDS011;641;48.492;9.184;2023-09-08T04:11:42;15.80;;;9.10;;
1296;SDS011;641;48.492;9.184;2023-09-08T04:14:08;14.47;;;8.67;;
1296;SDS011;641;48.492;9.184;2023-09-08T04:16:33;14.23;;;9.13;;
1296;SDS011;641;48.492;9.184;2023-09-08T04:18:59;16.13;;;8.63;;
1296;SDS011;641;48.492;9.184;2023-09-08T04:21:24;13.47;;;8.70;;
1296;SDS011;641;48.492;9.184;2023-09-08T04:23:50;14.47;;;9.30;;
1296;SDS011;641;48.492;9.184;2023-09-08T04:26:15;17.63;;;8.70;;
1296;SDS011;641;48.492;9.184;2023-09-08T04:28:41;16.53;;;10.33;;
1296;SDS011;641;48.492;9.184;2023-09-08T04:31:06;15.23;;;9.30;;
1296;SDS011;641;48.492;9.184;2023-09-08T04:33:32;15.20;;;9.57;;
1296;SDS011;641;48.492;9.184;2023-09-08T04:35:57;14.33;;;8.73;;
1296;SDS011;641;48.492;9.184;2023-09-08T04:38:23;17.67;;;8.93;;
1296;SDS011;641;48.492;9.184;2023-09-08T04:40:48;16.30;;;9.37;;
1296;SDS011;641;48.492;9.184;2023-09-08T04:43:14;15.17;;;9.67;;
1296;SDS011;641;48.492;9.184;2023-09-08T04:45:40;15.30;;;9.87;;
1296;SDS011;641;48.492;9.184;2023-09-08T04:48:05;16.20;;;10.63;;
1296;SDS011;641;48.492;9.184;2023-09-08T04:50:31;16.50;;;10.30;;
1296;SDS011;641;48.492;9.184;2023-09-08T04:52:57;15.53;;;8.63;;
1296;SDS011;641;48.492;9.184;2023-09-08T04:55:23;14.87;;;9.30;;
1296;SDS011;641;48.492;9.184;2023-09-08T04:57:48;14.20;;;9.33;;
1296;SDS011;641;48.492;9.184;2023-09-08T05:00:14;15.90;;;9.60;;
1296;SDS011;641;48.492;9.184;2023-09-08T05:02:40;13.33;;;8.47;;
1296;SDS011;641;48.492;9.184;2023-09-08T05:05:06;14.33;;;8.97;;
1296;SDS011;641;48.492;9.184;2023-09-08T05:07:31;14.43;;;9.30;;
1296;SDS011;641;48.492;9.184;2023-09-08T05:09:57;15.30;;;9.23;;
1296;SDS011;641;48.492;9.184;2023-09-08T05:12:23;14.77;;;8.50;;
1296;SDS011;641;48.492;9.184;2023-09-08T05:14:48;15.60;;;8.57;;
1296;SDS011;641;48.492;9.184;2023-09-08T05:17:14;13.77;;;8.70;;
1296;SDS011;641;48.492;9.184;2023-09-08T05:19:39;15.67;;;9.63;;
1296;SDS011;641;48.492;9.184;2023-09-08T05:22:05;14.87;;;9.07;;
1296;SDS011;641;48.492;9.184;2023-09-08T05:24:33;14.77;;;9.10;;
1296;SDS011;641;48.492;9.184;2023-09-08T05:26:59;14.20;;;9.20;;
1296;SDS011;641;48.492;9.184;2023-09-08T05:29:24;16.57;;;10.37;;
1296;SDS011;641;48.492;9.184;2023-09-08T05:31:50;14.90;;;9.67;;
1296;SDS011;641;48.492;9.184;2023-09-08T05:34:16;16.40;;;9.00;;
1296;SDS011;641;48.492;9.184;2023-09-08T05:36:42;15.73;;;9.40;;
1296;SDS011;641;48.492;9.184;2023-09-08T05:39:08;15.40;;;9.17;;
1296;SDS011;641;48.492;9.184;2023-09-08T05:41:34;14.43;;;9.00;;
1296;SDS011;641;48.492;9.184;2023-09-08T05:44:00;16.33;;;9.00;;
1296;SDS011;641;48.492;9.184;2023-09-08T05:46:25;17.47;;;9.80;;
1296;SDS011;641;48.492;9.184;2023-09-08T05:48:51;16.73;;;10.03;;
1296;SDS011;641;48.492;9.184;2023-09-08T05:51:16;18.87;;;12.07;;
1296;SDS011;641;48.492;9.184;2023-09-08T05:53:42;16.90;;;10.60;;
1296;SDS011;641;48.492;9.184;2023-09-08T05:56:08;20.43;;;10.33;;
1296;SDS011;641;48.492;9.184;2023-09-08T05:58:33;17.07;;;9.60;;
1296;SDS011;641;48.492;9.184;2023-09-08T06:01:02;17.90;;;10.00;;
1296;SDS011;641;48.492;9.184;2023-09-08T06:03:28;18.13;;;9.17;;
1296;SDS011;641;48.492;9.184;2023-09-08T06:05:54;17.60;;;9.70;;
1296;SDS011;641;48.492;9.184;2023-09-08T06:08:21;14.67;;;9.20;;
1296;SDS011;641;48.492;9.184;2023-09-08T06:10:46;13.90;;;9.07;;
1296;SDS011;641;48.492;9.184;2023-09-08T06:13:12;18.67;;;10.77;;
1296;SDS011;641;48.492;9.184;2023-09-08T06:15:37;14.80;;;9.63;;
1296;SDS011;641;48.492;9.184;2023-09-08T06:18:03;16.07;;;9.27;;
1296;SDS011;641;48.492;9.184;2023-09-08T06:20:29;14.43;;;9.07;;
1296;SDS011;641;48.492;9.184;2023-09-08T06:22:54;19.10;;;9.33;;
1296;SDS011;641;48.492;9.184;2023-09-08T06:25:20;16.53;;;10.03;;
1296;SDS011;641;48.492;9.184;2023-09-08T06:27:45;16.60;;;8.80;;
1296;SDS011;641;48.492;9.184;2023-09-08T06:30:11;13.27;;;8.20;;
1296;SDS011;641;48.492;9.184;2023-09-08T06:32:41;17.20;;;10.20;;
1296;SDS011;641;48.492;9.184;2023-09-08T06:35:07;16.17;;;10.23;;
1296;SDS011;641;48.492;9.184;2023-09-08T06:37:36;14.10;;;9.23;;
1296;SDS011;641;48.492;9.184;2023-09-08T06:40:03;19.90;;;10.00;;
1296;SDS011;641;48.492;9.184;2023-09-08T06:42:30;15.00;;;9.30;;
1296;SDS011;641;48.492;9.184;2023-09-08T06:44:55;18.53;;;9.40;;
1296;SDS011;641;48.492;9.184;2023-09-08T06:47:21;16.93;;;9.93;;
1296;SDS011;641;48.492;9.184;2023-09-08T06:49:46;15.37;;;9.83;;
1296;SDS011;641;48.492;9.184;2023-09-08T06:52:12;17.77;;;10.73;;
1296;SDS011;641;48.492;9.184;2023-09-08T06:54:38;13.83;;;9.53;;
1296;SDS011;641;48.492;9.184;2023-09-08T06:57:03;16.50;;;10.60;;
1296;SDS011;641;48.492;9.184;2023-09-08T06:59:29;18.40;;;10.30;;
1296;SDS011;641;48.492;9.184;2023-09-08T07:01:55;16.27;;;10.50;;
1296;SDS011;641;48.492;9.184;2023-09-08T07:04:20;20.53;;;11.67;;
1296;SDS011;641;48.492;9.184;2023-09-08T07:06:46;17.23;;;10.80;;
1296;SDS011;641;48.492;9.184;2023-09-08T07:09:11;16.70;;;10.40;;
1296;SDS011;641;48.492;9.184;2023-09-08T07:11:37;18.17;;;11.13;;
1296;SDS011;641;48.492;9.184;2023-09-08T07:14:03;14.63;;;9.80;;
1296;SDS011;641;48.492;9.184;2023-09-08T07:16:28;18.03;;;10.60;;
1296;SDS011;641;48.492;9.184;2023-09-08T07:18:54;17.50;;;10.80;;
1296;SDS011;641;48.492;9.184;2023-09-08T07:21:19;16.17;;;10.57;;
1296;SDS011;641;48.492;9.184;2023-09-08T07:23:45;15.47;;;9.63;;
1296;SDS011;641;48.492;9.184;2023-09-08T07:26:11;16.70;;;10.00;;
1296;SDS011;641;48.492;9.184;2023-09-08T07:28:36;16.80;;;10.40;;
1296;SDS011;641;48.492;9.184;2023-09-08T07:31:02;18.17;;;10.00;;
1296;SDS011;641;48.492;9.184;2023-09-08T07:33:28;17.20;;;9.20;;
1296;SDS011;641;48.492;9.184;2023-09-08T07:35:54;15.27;;;9.30;;
1296;SDS011;641;48.492;9.184;2023-09-08T07:38:19;16.30;;;9.33;;
1296;SDS011;641;48.492;9.184;2023-09-08T07:40:45;14.97;;;9.57;;
1296;SDS011;641;48.492;9.184;2023-09-08T07:43:10;16.90;;;9.67;;
1296;SDS011;641;48.492;9.184;2023-09-08T07:45:36;17.40;;;8.80;;
1296;SDS011;641;48.492;9.184;2023-09-08T07:48:02;14.73;;;8.97;;
1296;SDS011;641;48.492;9.184;2023-09-08T07:50:28;17.30;;;9.03;;
1296;SDS011;641;48.492;9.184;2023-09-08T07:52:55;17.50;;;8.67;;
1296;SDS011;641;48.492;9.184;2023-09-08T07:55:22;18.07;;;9.13;;
1296;SDS011;641;48.492;9.184;2023-09-08T07:57:48;15.93;;;9.90;;
1296;SDS011;641;48.492;9.184;2023-09-08T08:00:15;15.67;;;9.10;;
1296;SDS011;641;48.492;9.184;2023-09-08T08:02:43;13.13;;;8.67;;
1296;SDS011;641;48.492;9.184;2023-09-08T08:05:11;17.90;;;8.17;;
1296;SDS011;641;48.492;9.184;2023-09-08T08:07:37;15.43;;;8.47;;
1296;SDS011;641;48.492;9.184;2023-09-08T08:10:04;14.83;;;9.00;;
1296;SDS011;641;48.492;9.184;2023-09-08T08:12:30;13.83;;;8.70;;
1296;SDS011;641;48.492;9.184;2023-09-08T08:14:56;12.60;;;8.60;;
1296;SDS011;641;48.492;9.184;2023-09-08T08:17:21;14.40;;;8.30;;
1296;SDS011;641;48.492;9.184;2023-09-08T08:19:47;13.37;;;9.00;;
1296;SDS011;641;48.492;9.184;2023-09-08T08:22:13;12.70;;;7.60;;
1296;SDS011;641;48.492;9.184;2023-09-08T08:24:38;13.17;;;8.00;;
1296;SDS011;641;48.492;9.184;2023-09-08T08:27:04;13.57;;;8.60;;
1296;SDS011;641;48.492;9.184;2023-09-08T08:29:29;14.47;;;8.63;;
1296;SDS011;641;48.492;9.184;2023-09-08T08:31:55;14.37;;;9.13;;
1296;SDS011;641;48.492;9.184;2023-09-08T08:34:21;13.20;;;7.40;;
1296;SDS011;641;48.492;9.184;2023-09-08T08:36:47;12.57;;;7.40;;
1296;SDS011;641;48.492;9.184;2023-09-08T08:39:12;13.50;;;7.20;;
1296;SDS011;641;48.492;9.184;2023-09-08T08:41:39;12.90;;;8.57;;
1296;SDS011;641;48.492;9.184;2023-09-08T08:44:06;11.07;;;7.30;;
1296;SDS011;641;48.492;9.184;2023-09-08T08:46:33;13.23;;;7.50;;
1296;SDS011;641;48.492;9.184;2023-09-08T08:49:01;14.33;;;6.87;;
1296;SDS011;641;48.492;9.184;2023-09-08T08:51:28;11.10;;;6.80;;
1296;SDS011;641;48.492;9.184;2023-09-08T08:53:56;11.93;;;7.50;;
1296;SDS011;641;48.492;9.184;2023-09-08T08:56:22;13.57;;;7.30;;
1296;SDS011;641;48.492;9.184;2023-09-08T08:58:48;10.90;;;6.60;;
1296;SDS011;641;48.492;9.184;2023-09-08T09:01:15;14.50;;;8.33;;
1296;SDS011;641;48.492;9.184;2023-09-08T09:03:48;15.93;;;8.30;;
1296;SDS011;641;48.492;9.184;2023-09-08T09:06:14;15.80;;;7.90;;
1296;SDS011;641;48.492;9.184;2023-09-08T09:08:42;12.77;;;7.30;;
1296;SDS011;641;48.492;9.184;2023-09-08T09:11:09;12.67;;;7.73;;
1296;SDS011;641;48.492;9.184;2023-09-08T09:13:35;11.90;;;7.20;;
1296;SDS011;641;48.492;9.184;2023-09-08T09:16:01;14.40;;;7.83;;
1296;SDS011;641;48.492;9.184;2023-09-08T09:18:29;19.97;;;8.03;;
1296;SDS011;641;48.492;9.184;2023-09-08T09:20:56;11.80;;;6.93;;
1296;SDS011;641;48.492;9.184;2023-09-08T09:23:26;12.17;;;7.03;;
1296;SDS011;641;48.492;9.184;2023-09-08T09:25:53;13.20;;;7.10;;
1296;SDS011;641;48.492;9.184;2023-09-08T09:28:18;14.30;;;7.83;;
1296;SDS011;641;48.492;9.184;2023-09-08T09:30:47;13.77;;;7.70;;
1296;SDS011;641;48.492;9.184;2023-09-08T09:33:14;12.30;;;7.40;;
1296;SDS011;641;48.492;9.184;2023-09-08T09:35:41;14.20;;;7.40;;
1296;SDS011;641;48.492;9.184;2023-09-08T09:38:11;12.00;;;6.73;;
1296;SDS011;641;48.492;9.184;2023-09-08T09:40:38;14.43;;;6.90;;
1296;SDS011;641;48.492;9.184;2023-09-08T09:43:04;11.73;;;6.50;;
1296;SDS011;641;48.492;9.184;2023-09-08T09:45:31;15.40;;;7.57;;
1296;SDS011;641;48.492;9.184;2023-09-08T09:47:59;12.73;;;6.77;;
1296;SDS011;641;48.492;9.184;2023-09-08T09:50:30;14.10;;;7.60;;
1296;SDS011;641;48.492;9.184;2023-09-08T09:52:58;12.00;;;6.90;;
1296;SDS011;641;48.492;9.184;2023-09-08T09:55:25;11.70;;;6.60;;
1296;SDS011;641;48.492;9.184;2023-09-08T09:57:53;19.63;;;7.67;;
1296;SDS011;641;48.492;9.184;2023-09-08T10:00:22;13.53;;;8.37;;
1296;SDS011;641;48.492;9.184;2023-09-08T10:02:49;12.80;;;7.80;;
1296;SDS011;641;48.492;9.184;2023-09-08T10:05:16;13.97;;;7.40;;
1296;SDS011;641;48.492;9.184;2023-09-08T10:07:42;12.37;;;7.27;;
1296;SDS011;641;48.492;9.184;2023-09-08T10:10:08;12.00;;;7.03;;
1296;SDS011;641;48.492;9.184;2023-09-08T10:12:35;13.93;;;7.07;;
1296;SDS011;641;48.492;9.184;2023-09-08T10:15:03;14.80;;;7.70;;
1296;SDS011;641;48.492;9.184;2023-09-08T10:17:31;11.40;;;7.17;;
1296;SDS011;641;48.492;9.184;2023-09-08T10:20:00;12.83;;;6.60;;
1296;SDS011;641;48.492;9.184;2023-09-08T10:22:33;11.00;;;7.17;;
1296;SDS011;641;48.492;9.184;2023-09-08T10:25:01;16.87;;;7.10;;
1296;SDS011;641;48.492;9.184;2023-09-08T10:27:30;13.93;;;7.20;;
1296;SDS011;641;48.492;9.184;2023-09-08T10:29:57;12.63;;;7.50;;
1296;SDS011;641;48.492;9.184;2023-09-08T10:32:26;10.77;;;6.73;;
1296;SDS011;641;48.492;9.184;2023-09-08T10:34:52;13.60;;;6.80;;
1296;SDS011;641;48.492;9.184;2023-09-08T10:37:19;11.77;;;6.90;;
1296;SDS011;641;48.492;9.184;2023-09-08T10:39:46;14.43;;;6.80;;
1296;SDS011;641;48.492;9.184;2023-09-08T10:47:18;10.50;;;6.30;;
1296;SDS011;641;48.492;9.184;2023-09-08T10:49:51;12.73;;;7.70;;
1296;SDS011;641;48.492;9.184;2023-09-08T10:52:20;13.40;;;6.60;;
1296;SDS011;641;48.492;9.184;2023-09-08T10:54:48;13.40;;;7.57;;
1296;SDS011;641;48.492;9.184;2023-09-08T10:57:18;13.07;;;6.90;;
1296;SDS011;641;48.492;9.184;2023-09-08T10:59:56;13.60;;;7.50;;
1296;SDS011;641;48.492;9.184;2023-09-08T11:02:36;12.40;;;7.07;;
1296;SDS011;641;48.492;9.184;2023-09-08T11:05:06;12.93;;;7.40;;
1296;SDS011;641;48.492;9.184;2023-09-08T11:07:37;11.10;;;6.30;;
1296;SDS011;641;48.492;9.184;2023-09-08T11:10:04;10.90;;;6.40;;
1296;SDS011;641;48.492;9.184;2023-09-08T11:12:30;10.40;;;6.40;;
1296;SDS011;641;48.492;9.184;2023-09-08T11:14:56;10.83;;;7.13;;
1296;SDS011;641;48.492;9.184;2023-09-08T11:17:25;12.83;;;6.60;;
1296;SDS011;641;48.492;9.184;2023-09-08T11:19:53;14.43;;;8.13;;
1296;SDS011;641;48.492;9.184;2023-09-08T11:22:21;11.13;;;6.20;;
1296;SDS011;641;48.492;9.184;2023-09-08T11:24:49;11.10;;;6.60;;
1296;SDS011;641;48.492;9.184;2023-09-08T11:27:16;11.07;;;6.93;;
1296;SDS011;641;48.492;9.184;2023-09-08T11:29:43;10.93;;;6.60;;
1296;SDS011;641;48.492;9.184;2023-09-08T11:32:09;10.93;;;5.93;;
1296;SDS011;641;48.492;9.184;2023-09-08T11:34:35;12.37;;;6.87;;
1296;SDS011;641;48.492;9.184;2023-09-08T11:37:34;11.23;;;6.90;;
1296;SDS011;641;48.492;9.184;2023-09-08T11:39:53;11.00;;;6.47;;
1296;SDS011;641;48.492;9.184;2023-09-08T11:42:18;11.00;;;6.53;;
1296;SDS011;641;48.492;9.184;2023-09-08T11:44:46;11.07;;;6.80;;
1296;SDS011;641;48.492;9.184;2023-09-08T11:47:12;12.33;;;6.43;;
1296;SDS011;641;48.492;9.184;2023-09-08T11:49:41;13.00;;;6.83;;
1296;SDS011;641;48.492;9.184;2023-09-08T11:52:07;11.47;;;6.40;;
1296;SDS011;641;48.492;9.184;2023-09-08T11:54:36;11.73;;;6.53;;
1296;SDS011;641;48.492;9.184;2023-09-08T11:57:03;11.43;;;6.60;;
1296;SDS011;641;48.492;9.184;2023-09-08T11:59:30;11.67;;;6.67;;
1296;SDS011;641;48.492;9.184;2023-09-08T12:01:57;10.33;;;6.20;;
1296;SDS011;641;48.492;9.184;2023-09-08T12:04:23;11.00;;;5.60;;
1296;SDS011;641;48.492;9.184;2023-09-08T12:06:50;11.17;;;5.97;;
1296;SDS011;641;48.492;9.184;2023-09-08T12:09:17;11.97;;;6.50;;
1296;SDS011;641;48.492;9.184;2023-09-08T12:11:42;12.33;;;5.70;;
1296;SDS011;641;48.492;9.184;2023-09-08T12:14:11;10.87;;;6.27;;
1296;SDS011;641;48.492;9.184;2023-09-08T12:16:38;9.27;;;5.60;;
1296;SDS011;641;48.492;9.184;2023-09-08T12:19:05;10.27;;;5.80;;
1296;SDS011;641;48.492;9.184;2023-09-08T12:21:31;11.93;;;5.43;;
1296;SDS011;641;48.492;9.184;2023-09-08T12:23:57;11.37;;;6.00;;
1296;SDS011;641;48.492;9.184;2023-09-08T12:26:26;11.30;;;5.87;;
1296;SDS011;641;48.492;9.184;2023-09-08T12:28:52;11.13;;;6.07;;
1296;SDS011;641;48.492;9.184;2023-09-08T12:31:18;10.50;;;6.17;;
1296;SDS011;641;48.492;9.184;2023-09-08T12:33:44;11.13;;;6.40;;
1296;SDS011;641;48.492;9.184;2023-09-08T12:36:13;10.50;;;6.40;;
1296;SDS011;641;48.492;9.184;2023-09-08T12:38:40;11.90;;;6.43;;
1296;SDS011;641;48.492;9.184;2023-09-08T12:41:11;9.70;;;5.90;;
1296;SDS011;641;48.492;9.184;2023-09-08T12:43:36;10.30;;;5.57;;
1296;SDS011;641;48.492;9.184;2023-09-08T12:46:02;10.80;;;5.90;;
1296;SDS011;641;48.492;9.184;2023-09-08T12:48:27;10.80;;;5.80;;
1296;SDS011;641;48.492;9.184;2023-09-08T12:50:53;11.37;;;6.10;;
1296;SDS011;641;48.492;9.184;2023-09-08T12:53:19;9.90;;;5.80;;
1296;SDS011;641;48.492;9.184;2023-09-08T12:55:45;10.33;;;5.20;;
1296;SDS011;641;48.492;9.184;2023-09-08T12:58:11;10.70;;;6.10;;
1296;SDS011;641;48.492;9.184;2023-09-08T13:00:37;15.40;;;6.37;;
1296;SDS011;641;48.492;9.184;2023-09-08T13:03:02;11.43;;;6.87;;
1296;SDS011;641;48.492;9.184;2023-09-08T13:05:28;13.00;;;6.07;;
1296;SDS011;641;48.492;9.184;2023-09-08T13:07:53;10.87;;;5.70;;
1296;SDS011;641;48.492;9.184;2023-09-08T13:10:19;10.60;;;5.50;;
1296;SDS011;641;48.492;9.184;2023-09-08T13:12:45;12.47;;;6.20;;
1296;SDS011;641;48.492;9.184;2023-09-08T13:15:11;9.23;;;5.10;;
1296;SDS011;641;48.492;9.184;2023-09-08T13:17:36;10.00;;;6.13;;
1296;SDS011;641;48.492;9.184;2023-09-08T13:20:02;9.10;;;5.53;;
1296;SDS011;641;48.492;9.184;2023-09-08T13:22:28;10.23;;;6.40;;
1296;SDS011;641;48.492;9.184;2023-09-08T13:24:54;10.53;;;6.00;;
1296;SDS011;641;48.492;9.184;2023-09-08T13:27:20;12.40;;;6.17;;
1296;SDS011;641;48.492;9.184;2023-09-08T13:29:45;9.63;;;5.40;;
1296;SDS011;641;48.492;9.184;2023-09-08T13:32:11;9.47;;;5.40;;
1296;SDS011;641;48.492;9.184;2023-09-08T13:34:36;11.33;;;6.00;;
1296;SDS011;641;48.492;9.184;2023-09-08T13:37:03;11.10;;;5.53;;
1296;SDS011;641;48.492;9.184;2023-09-08T13:39:29;11.20;;;5.67;;
1296;SDS011;641;48.492;9.184;2023-09-08T13:41:55;13.90;;;6.37;;
1296;SDS011;641;48.492;9.184;2023-09-08T13:44:22;9.30;;;5.13;;
1296;SDS011;641;48.492;9.184;2023-09-08T13:46:49;11.00;;;5.63;;
1296;SDS011;641;48.492;9.184;2023-09-08T13:49:15;10.67;;;5.77;;
1296;SDS011;641;48.492;9.184;2023-09-08T13:51:40;13.60;;;6.70;;
1296;SDS011;641;48.492;9.184;2023-09-08T13:54:07;10.50;;;5.87;;
1296;SDS011;641;48.492;9.184;2023-09-08T13:56:33;10.47;;;5.33;;
1296;SDS011;641;48.492;9.184;2023-09-08T13:58:58;9.73;;;5.43;;
1296;SDS011;641;48.492;9.184;2023-09-08T14:01:24;12.50;;;6.33;;
1296;SDS011;641;48.492;9.184;2023-09-08T14:03:52;13.97;;;5.83;;
1296;SDS011;641;48.492;9.184;2023-09-08T14:06:18;12.17;;;5.87;;
1296;SDS011;641;48.492;9.184;2023-09-08T14:08:44;10.27;;;5.60;;
1296;SDS011;641;48.492;9.184;2023-09-08T14:11:10;10.10;;;5.47;;
1296;SDS011;641;48.492;9.184;2023-09-08T14:13:37;11.03;;;5.30;;
1296;SDS011;641;48.492;9.184;2023-09-08T14:16:02;12.13;;;5.30;;
1296;SDS011;641;48.492;9.184;2023-09-08T14:18:28;10.10;;;5.60;;
1296;SDS011;641;48.492;9.184;2023-09-08T14:20:54;12.73;;;5.47;;
1296;SDS011;641;48.492;9.184;2023-09-08T14:23:20;9.73;;;5.47;;
1296;SDS011;641;48.492;9.184;2023-09-08T14:25:45;10.13;;;6.00;;
1296;SDS011;641;48.492;9.184;2023-09-08T14:28:11;11.23;;;5.67;;
1296;SDS011;641;48.492;9.184;2023-09-08T14:30:36;14.33;;;6.10;;
1296;SDS011;641;48.492;9.184;2023-09-08T14:33:02;10.10;;;5.40;;
1296;SDS011;641;48.492;9.184;2023-09-08T14:35:28;10.83;;;5.53;;
1296;SDS011;641;48.492;9.184;2023-09-08T14:37:53;11.27;;;6.33;;
1296;SDS011;641;48.492;9.184;2023-09-08T14:40:19;10.37;;;5.70;;
1296;SDS011;641;48.492;9.184;2023-09-08T14:42:46;11.93;;;5.77;;
1296;SDS011;641;48.492;9.184;2023-09-08T14:45:12;11.30;;;6.33;;
1296;SDS011;641;48.492;9.184;2023-09-08T14:47:37;10.57;;;6.30;;
1296;SDS011;641;48.492;9.184;2023-09-08T14:50:03;11.13;;;6.43;;
1296;SDS011;641;48.492;9.184;2023-09-08T14:52:29;10.57;;;6.10;;
1296;SDS011;641;48.492;9.184;2023-09-08T14:54:54;10.13;;;5.40;;
1296;SDS011;641;48.492;9.184;2023-09-08T14:57:20;10.63;;;6.30;;
1296;SDS011;641;48.492;9.184;2023-09-08T14:59:45;11.80;;;6.63;;
1296;SDS011;641;48.492;9.184;2023-09-08T15:02:11;12.53;;;5.53;;
1296;SDS011;641;48.492;9.184;2023-09-08T15:04:37;19.77;;;6.90;;
1296;SDS011;641;48.492;9.184;2023-09-08T15:07:03;9.60;;;5.43;;
1296;SDS011;641;48.492;9.184;2023-09-08T15:09:29;12.80;;;5.57;;
1296;SDS011;641;48.492;9.184;2023-09-08T15:11:54;10.50;;;6.07;;
1296;SDS011;641;48.492;9.184;2023-09-08T15:14:20;11.50;;;5.90;;
1296;SDS011;641;48.492;9.184;2023-09-08T15:16:45;12.80;;;6.47;;
1296;SDS011;641;48.492;9.184;2023-09-08T15:19:11;10.43;;;6.23;;